Time;durP1;ratioP1;P1;durP2;ratioP2;P2;SDS_P1;SDS_P2;PMS_P1;PMS_P2;Temp;Humidity;BMP_temperature;BMP_pressure;BME280_temperature;BME280_humidity;BME280_pressure;Samples;Min_cycle;Max_cycle;Signal;HPM_P1;HPM_P2
2022/09/21 00:01:04;;;;;;;;;;;;;;;25.64;nan;101088.16;5035387;28;1233;-39
2022/09/21 00:03:32;;;;;;;;;;;;;;;25.65;nan;101089.00;5036109;28;1479;-40
2022/09/21 00:06:06;;;;;;;;;;;;;;;25.64;nan;101088.16;5035670;28;1225;-39
2022/09/21 00:08:33;;;;;;;;;;;;;;;25.64;nan;101082.81;5035882;28;1179;-39
2022/09/21 00:11:00;;;;;;;;;;;;;;;25.62;nan;101087.44;5035266;28;1197;-39
2022/09/21 00:13:27;;;;;;;;;;;;;;;25.62;nan;101083.94;5035786;28;1225;-38
2022/09/21 00:15:54;;;;;;;;;;;;;;;25.59;nan;101074.34;5035406;28;1983;-39
2022/09/21 00:18:22;;;;;;;;;;;;;;;25.59;nan;101076.16;5035737;28;1095;-39
2022/09/21 00:20:49;;;;;;;;;;;;;;;25.58;nan;101075.31;5035121;28;1209;-40
2022/09/21 00:23:15;;;;;;;;;;;;;;;25.57;nan;101076.28;5035526;28;1048;-41
2022/09/21 00:25:42;;;;;;;;;;;;;;;25.58;nan;101075.31;5035041;28;1291;-39
2022/09/21 00:28:09;;;;;;;;;;;;;;;25.57;nan;101070.09;5035170;28;1491;-39
2022/09/21 00:30:36;;;;;;;;;;;;;;;25.56;nan;101071.94;5034958;28;1268;-38
2022/09/21 00:33:03;;;;;;;;;;;;;;;25.57;nan;101078.09;5035188;28;1111;-39
2022/09/21 00:35:29;;;;;;;;;;;;;;;25.56;nan;101076.41;5034051;28;1914;-39
2022/09/21 00:37:59;;;;;;;;;;;;;;;25.56;nan;101079.09;5035180;28;935;-40
2022/09/21 00:40:26;;;;;;;;;;;;;;;25.53;nan;101086.34;5034628;28;1217;-38
2022/09/21 00:42:53;;;;;;;;;;;;;;;25.51;nan;101082.97;5035129;28;1120;-38
2022/09/21 00:45:22;;;;;;;;;;;;;;;25.54;nan;101084.53;5034994;28;1294;-42
2022/09/21 00:47:51;;;;;;;;;;;;;;;25.52;nan;101079.34;5035009;28;1021;-40
2022/09/21 00:50:21;;;;;;;;;;;;;;;25.53;nan;101089.00;5034847;28;1396;-40
2022/09/21 00:52:50;;;;;;;;;;;;;;;25.54;nan;101093.38;5035085;28;1027;-41
2022/09/21 00:55:17;;;;;;;;;;;;;;;25.53;nan;101091.69;5034259;28;1906;-40
2022/09/21 00:57:46;;;;;;;;;;;;;;;25.53;nan;101094.34;5034704;28;1009;-39
2022/09/21 01:00:13;;;;;;;;;;;;;;;25.54;nan;101089.84;5034201;28;1292;-40
2022/09/21 01:02:40;;;;;;;;;;;;;;;25.53;nan;101093.53;5034722;28;910;-42
2022/09/21 01:05:08;;;;;;;;;;;;;;;25.52;nan;101092.66;5034088;28;1208;-39
2022/09/21 01:07:36;;;;;;;;;;;;;;;25.53;nan;101091.69;5034603;28;1034;-41
2022/09/21 01:10:06;;;;;;;;;;;;;;;25.52;nan;101084.66;5034515;28;1213;-40
2022/09/21 01:12:33;;;;;;;;;;;;;;;25.51;nan;101087.44;5034470;28;1036;-39
2022/09/21 01:15:15;;;;;;;;;;;;;;;25.51;nan;101085.63;5033896;28;1990;-40
2022/09/21 01:17:42;;;;;;;;;;;;;;;25.51;nan;101082.97;5034222;28;986;-39
2022/09/21 01:20:28;;;;;;;;;;;;;;;25.50;nan;101086.59;5034082;28;1314;-40
2022/09/21 01:23:03;;;;;;;;;;;;;;;25.50;nan;101089.25;5034272;28;1033;-39
2022/09/21 01:25:31;;;;;;;;;;;;;;;25.50;nan;101088.44;5033199;28;1245;-40
2022/09/21 01:28:20;;;;;;;;;;;;;;;25.48;nan;101083.19;5034036;28;902;-38
2022/09/21 01:30:48;;;;;;;;;;;;;;;25.47;nan;101081.47;5033893;28;1268;-41
2022/09/21 01:33:18;;;;;;;;;;;;;;;25.47;nan;101085.97;5049108;28;1034;-41
2022/09/21 01:35:52;;;;;;;;;;;;;;;25.47;nan;101086.81;5033478;28;1981;-39
2022/09/21 01:38:24;;;;;;;;;;;;;;;25.45;nan;101083.41;5033814;28;1128;-41
2022/09/21 01:40:52;;;;;;;;;;;;;;;25.46;nan;101077.13;5033505;28;1265;-40
2022/09/21 01:43:24;;;;;;;;;;;;;;;25.46;nan;101077.13;5033956;28;1035;-41
2022/09/21 01:45:53;;;;;;;;;;;;;;;25.46;nan;101071.78;5033602;28;1256;-41
2022/09/21 01:48:21;;;;;;;;;;;;;;;25.46;nan;101069.13;5033841;28;965;-42
2022/09/21 01:50:56;;;;;;;;;;;;;;;25.45;nan;101062.09;5048818;28;1466;-41
2022/09/21 01:53:27;;;;;;;;;;;;;;;25.46;nan;101069.13;5033728;28;1030;-39
2022/09/21 01:55:58;;;;;;;;;;;;;;;25.45;nan;101069.22;5033168;28;1907;-39
2022/09/21 01:58:38;;;;;;;;;;;;;;;25.45;nan;101067.41;5033967;28;1212;-41
2022/09/21 02:01:07;;;;;;;;;;;;;;;25.44;nan;101068.38;5033856;28;1261;-40
2022/09/21 02:03:37;;;;;;;;;;;;;;;25.42;nan;101069.47;5033857;28;1170;-41
2022/09/21 02:06:04;;;;;;;;;;;;;;;25.41;nan;101065.94;5033424;28;1229;-40
2022/09/21 02:08:32;;;;;;;;;;;;;;;25.42;nan;101058.81;5033818;28;919;-41
2022/09/21 02:11:02;;;;;;;;;;;;;;;25.40;nan;101063.44;5033247;28;1209;-40
2022/09/21 02:13:32;;;;;;;;;;;;;;;25.41;nan;101057.97;5033760;28;1178;-39
2022/09/21 02:15:58;;;;;;;;;;;;;;;25.44;nan;101057.72;5032792;28;1914;-39
2022/09/21 02:18:39;;;;;;;;;;;;;;;25.43;nan;101058.69;5033419;28;1173;-38
2022/09/21 02:21:12;;;;;;;;;;;;;;;25.44;nan;101048.88;5033100;28;1285;-39
2022/09/21 02:23:48;;;;;;;;;;;;;;;25.43;nan;101040.03;5032982;28;1176;-40
2022/09/21 02:26:22;;;;;;;;;;;;;;;25.43;nan;101042.69;5032910;28;1265;-39
2022/09/21 02:28:52;;;;;;;;;;;;;;;25.43;nan;101044.50;5033241;28;918;-38
2022/09/21 02:31:21;;;;;;;;;;;;;;;25.40;nan;101042.09;5032489;28;1338;-40
2022/09/21 02:33:51;;;;;;;;;;;;;;;25.40;nan;101040.28;5064571;28;1217;-37
2022/09/21 02:36:21;;;;;;;;;;;;;;;25.41;nan;101043.81;5032912;28;1914;-41
2022/09/21 02:38:53;;;;;;;;;;;;;;;25.40;nan;101047.44;5032910;28;896;-40
2022/09/21 02:41:39;;;;;;;;;;;;;;;25.40;nan;101042.94;5033021;28;1327;-40
2022/09/21 02:44:10;;;;;;;;;;;;;;;25.39;nan;101046.56;5032963;28;720;-42
2022/09/21 02:46:40;;;;;;;;;;;;;;;25.39;nan;101041.25;5033547;28;1491;-38
2022/09/21 02:49:09;;;;;;;;;;;;;;;25.40;nan;101048.28;5032857;28;1509;-39
2022/09/21 02:51:42;;;;;;;;;;;;;;;25.38;nan;101050.19;5064785;28;1205;-39
2022/09/21 02:54:11;;;;;;;;;;;;;;;25.37;nan;101048.53;5032895;28;695;-42
2022/09/21 02:56:40;;;;;;;;;;;;;;;25.37;nan;101050.34;5032655;28;1977;-41
2022/09/21 02:59:07;;;;;;;;;;;;;;;25.37;nan;101051.19;5033091;28;942;-41
2022/09/21 03:01:34;;;;;;;;;;;;;;;25.37;nan;101048.53;5033058;28;1221;-41
2022/09/21 03:04:01;;;;;;;;;;;;;;;25.38;nan;101044.88;5032983;28;1029;-42
2022/09/21 03:06:28;;;;;;;;;;;;;;;25.37;nan;101048.53;5032716;28;1223;-40
2022/09/21 03:08:57;;;;;;;;;;;;;;;25.37;nan;101050.34;5033000;28;954;-40
2022/09/21 03:11:24;;;;;;;;;;;;;;;25.37;nan;101051.19;5032595;28;1213;-40
2022/09/21 03:13:51;;;;;;;;;;;;;;;25.38;nan;101050.19;5031814;28;777;-41
2022/09/21 03:16:18;;;;;;;;;;;;;;;25.38;nan;101052.03;5032773;28;1907;-39
2022/09/21 03:18:44;;;;;;;;;;;;;;;25.37;nan;101048.53;5032813;28;906;-40
2022/09/21 03:21:11;;;;;;;;;;;;;;;25.37;nan;101045.84;5032946;28;1216;-40
2022/09/21 03:23:38;;;;;;;;;;;;;;;25.37;nan;101048.53;5033164;28;1259;-40
2022/09/21 03:26:05;;;;;;;;;;;;;;;25.37;nan;101043.19;5032888;28;1299;-40
2022/09/21 03:28:32;;;;;;;;;;;;;;;25.36;nan;101038.81;5034861;28;1177;-39
2022/09/21 03:30:59;;;;;;;;;;;;;;;25.37;nan;101048.53;5036281;28;1213;-40
2022/09/21 03:33:25;;;;;;;;;;;;;;;25.37;nan;101048.53;5036263;28;1218;-38
2022/09/21 03:35:52;;;;;;;;;;;;;;;25.37;nan;101047.66;5067534;28;1906;-34
2022/09/21 03:38:20;;;;;;;;;;;;;;;25.36;nan;101048.63;5036122;28;1166;-38
2022/09/21 03:40:48;;;;;;;;;;;;;;;25.36;nan;101049.47;5035555;28;1181;-37
2022/09/21 03:43:14;;;;;;;;;;;;;;;25.37;nan;101048.53;5035921;28;1041;-39
2022/09/21 03:45:41;;;;;;;;;;;;;;;25.36;nan;101041.50;5035768;28;1197;-37
2022/09/21 03:48:09;;;;;;;;;;;;;;;25.36;nan;101045.97;5035848;28;1031;-40
2022/09/21 03:50:36;;;;;;;;;;;;;;;25.36;nan;101044.16;5035255;28;2030;-39
2022/09/21 03:53:03;;;;;;;;;;;;;;;25.37;nan;101045.84;5036003;28;1117;-40
2022/09/21 03:55:32;;;;;;;;;;;;;;;25.36;nan;101038.81;5035360;28;1973;-40
2022/09/21 03:57:58;;;;;;;;;;;;;;;25.36;nan;101041.50;5036012;28;1001;-41
2022/09/21 04:00:25;;;;;;;;;;;;;;;25.37;nan;101040.53;5035383;28;1209;-40
2022/09/21 04:02:52;;;;;;;;;;;;;;;25.35;nan;101039.78;5035800;28;1123;-40
2022/09/21 04:05:19;;;;;;;;;;;;;;;25.35;nan;101042.44;5035641;28;1205;-42
2022/09/21 04:07:46;;;;;;;;;;;;;;;25.36;nan;101040.63;5035675;28;1056;-40
2022/09/21 04:10:14;;;;;;;;;;;;;;;25.35;nan;101039.78;5035312;28;1193;-42
2022/09/21 04:12:42;;;;;;;;;;;;;;;25.36;nan;101041.50;5035572;28;1080;-42
2022/09/21 04:15:13;;;;;;;;;;;;;;;25.34;nan;101038.09;5051034;28;1987;-41
2022/09/21 04:17:40;;;;;;;;;;;;;;;25.35;nan;101044.28;5041757;28;1310;-43
2022/09/21 04:20:07;;;;;;;;;;;;;;;25.35;nan;101041.63;5054520;28;1234;-42
2022/09/21 04:22:35;;;;;;;;;;;;;;;25.35;nan;101047.78;5040863;28;1022;-43
2022/09/21 04:25:06;;;;;;;;;;;;;;;25.35;nan;101045.09;5035224;28;1365;-42
2022/09/21 04:27:33;;;;;;;;;;;;;;;25.35;nan;101046.97;5038614;28;895;-42
2022/09/21 04:30:01;;;;;;;;;;;;;;;25.34;nan;101047.91;5054962;28;1209;-42
2022/09/21 04:32:27;;;;;;;;;;;;;;;25.34;nan;101054.09;5055148;28;1024;-41
2022/09/21 04:34:54;;;;;;;;;;;;;;;25.32;nan;101047.19;5054918;28;1209;-40
2022/09/21 04:37:21;;;;;;;;;;;;;;;25.33;nan;101047.06;5054849;28;1913;-38
2022/09/21 04:39:48;;;;;;;;;;;;;;;25.32;nan;101048.03;5052003;28;1432;-41
2022/09/21 04:42:14;;;;;;;;;;;;;;;25.34;nan;101048.78;5034687;28;1059;-40
2022/09/21 04:44:41;;;;;;;;;;;;;;;25.33;nan;101047.06;5034352;28;1269;-39
2022/09/21 04:47:08;;;;;;;;;;;;;;;25.33;nan;101047.06;5034715;28;958;-41
2022/09/21 04:49:34;;;;;;;;;;;;;;;25.34;nan;101054.09;5034235;28;1205;-39
2022/09/21 04:52:02;;;;;;;;;;;;;;;25.32;nan;101056.03;5033045;28;1051;-37
2022/09/21 04:54:29;;;;;;;;;;;;;;;25.33;nan;101052.41;5066099;28;851;-40
2022/09/21 04:56:55;;;;;;;;;;;;;;;25.33;nan;101051.53;5034493;28;1989;-39
2022/09/21 04:59:22;;;;;;;;;;;;;;;25.34;nan;101051.44;5040028;28;1553;-40
2022/09/21 05:01:49;;;;;;;;;;;;;;;25.32;nan;101055.19;5041564;28;1664;-39
2022/09/21 05:04:16;;;;;;;;;;;;;;;25.29;nan;101058.94;5034167;28;870;-42
2022/09/21 05:06:42;;;;;;;;;;;;;;;25.29;nan;101061.59;5033727;28;1783;-40
2022/09/21 05:11:54;;;;;;;;;;;;;;;25.28;nan;101059.06;5054236;28;1371;-41
2022/09/21 05:14:21;;;;;;;;;;;;;;;25.26;nan;101059.19;5053953;28;754;-42
2022/09/21 05:16:48;;;;;;;;;;;;;;;25.26;nan;101071.69;5037860;28;1883;-41
2022/09/21 05:19:16;;;;;;;;;;;;;;;25.24;nan;101058.47;5034020;28;835;-40
2022/09/21 05:21:42;;;;;;;;;;;;;;;25.25;nan;101053.97;5034862;28;1331;-40
2022/09/21 05:24:09;;;;;;;;;;;;;;;25.26;nan;101058.34;5048887;28;945;-39
2022/09/21 05:26:36;;;;;;;;;;;;;;;25.24;nan;101063.78;5042807;28;1212;-40
2022/09/21 05:29:03;;;;;;;;;;;;;;;25.22;nan;101059.56;5053651;28;733;-41
2022/09/21 05:31:29;;;;;;;;;;;;;;;25.21;nan;101064.03;5068721;28;1315;-41
2022/09/21 05:34:02;;;;;;;;;;;;;;;25.20;nan;101062.31;5053850;28;918;-42
2022/09/21 05:36:38;;;;;;;;;;;;;;;25.21;nan;101066.69;5052527;28;1989;-39
2022/09/21 05:39:05;;;;;;;;;;;;;;;25.20;nan;101061.50;5053828;28;964;-43
2022/09/21 05:41:32;;;;;;;;;;;;;;;25.18;nan;101063.44;5053063;28;1272;-41
2022/09/21 05:43:59;;;;;;;;;;;;;;;25.18;nan;101061.63;5053093;28;816;-41
2022/09/21 05:46:26;;;;;;;;;;;;;;;25.17;nan;101067.09;5053195;28;1267;-41
2022/09/21 05:48:59;;;;;;;;;;;;;;;25.15;nan;101067.19;5053023;28;1175;-40
2022/09/21 05:51:33;;;;;;;;;;;;;;;25.16;nan;101066.22;5052228;28;1272;-39
2022/09/21 05:54:03;;;;;;;;;;;;;;;25.15;nan;101069.00;5053075;28;621;-37
2022/09/21 05:56:47;;;;;;;;;;;;;;;25.14;nan;101068.16;5052764;28;1911;-40
2022/09/21 05:59:26;;;;;;;;;;;;;;;25.18;nan;101061.63;5053457;28;961;-39
2022/09/21 06:01:55;;;;;;;;;;;;;;;25.21;nan;101063.19;5060305;28;1464;-39
2022/09/21 06:04:22;;;;;;;;;;;;;;;25.21;nan;101069.38;5072807;28;792;-39
2022/09/21 06:06:49;;;;;;;;;;;;;;;25.20;nan;101067.66;5071478;28;1223;-39
2022/09/21 06:09:15;;;;;;;;;;;;;;;25.19;nan;101070.47;5070995;28;773;-41
2022/09/21 06:11:42;;;;;;;;;;;;;;;25.18;nan;101082.94;5071155;28;1335;-40
2022/09/21 06:14:12;;;;;;;;;;;;;;;25.19;nan;101075.78;5048273;28;1440;-37
2022/09/21 06:16:40;;;;;;;;;;;;;;;25.21;nan;101090.69;5047693;28;1989;-39
2022/09/21 06:19:11;;;;;;;;;;;;;;;25.22;nan;101092.41;5050305;28;1246;-37
2022/09/21 06:21:37;;;;;;;;;;;;;;;25.22;nan;101094.22;5030274;28;1367;-40
2022/09/21 06:24:04;;;;;;;;;;;;;;;25.21;nan;101101.38;5029799;28;933;-41
2022/09/21 06:26:31;;;;;;;;;;;;;;;25.22;nan;101099.53;5029601;28;1321;-39
2022/09/21 06:28:58;;;;;;;;;;;;;;;25.22;nan;101107.53;5030044;28;1142;-39
2022/09/21 06:31:27;;;;;;;;;;;;;;;25.21;nan;101106.69;5028155;28;1217;-33
2022/09/21 06:33:55;;;;;;;;;;;;;;;25.22;nan;101102.22;5029568;28;1557;-42
2022/09/21 06:36:23;;;;;;;;;;;;;;;25.23;nan;101104.75;5041535;28;1902;-35
2022/09/21 06:38:50;;;;;;;;;;;;;;;25.09;nan;101107.66;5049648;28;1290;-34
2022/09/21 06:41:16;;;;;;;;;;;;;;;24.99;nan;101104.00;5050397;28;1208;-33
2022/09/21 06:43:46;;;;;;;;;;;;;;;24.91;nan;101112.59;5050712;28;1246;-35
2022/09/21 06:46:13;;;;;;;;;;;;;;;24.95;nan;101108.75;5051021;28;1253;-34
2022/09/21 06:48:40;;;;;;;;;;;;;;;24.93;nan;101107.13;5051029;28;1377;-34
2022/09/21 06:51:06;;;;;;;;;;;;;;;24.95;nan;101113.22;5048233;28;1285;-33
2022/09/21 06:53:34;;;;;;;;;;;;;;;24.83;nan;101109.69;5051614;28;1203;-33
2022/09/21 06:56:04;;;;;;;;;;;;;;;24.89;nan;101111.03;5051381;28;1922;-34
2022/09/21 06:58:33;;;;;;;;;;;;;;;24.79;nan;101110.00;5052467;28;1220;-35
2022/09/21 07:01:04;;;;;;;;;;;;;;;24.76;nan;101108.41;5051477;28;1170;-34
2022/09/21 07:03:31;;;;;;;;;;;;;;;24.79;nan;101100.19;5055774;28;1286;-36
2022/09/21 07:05:57;;;;;;;;;;;;;;;24.94;nan;101108.84;5056239;28;1217;-38
2022/09/21 07:08:25;;;;;;;;;;;;;;;25.05;nan;101100.03;5086760;28;1250;-39
2022/09/21 07:11:12;;;;;;;;;;;;;;;25.12;nan;101109.22;5055879;28;2046;-40
2022/09/21 07:13:40;;;;;;;;;;;;;;;25.14;nan;101108.13;5046732;28;1568;-41
2022/09/21 07:16:08;;;;;;;;;;;;;;;25.16;nan;101106.22;5052167;28;1906;-37
2022/09/21 07:18:39;;;;;;;;;;;;;;;25.18;nan;101111.41;5071060;28;1397;-36
2022/09/21 07:21:10;;;;;;;;;;;;;;;25.17;nan;101107.88;5055491;28;1354;-38
2022/09/21 07:23:37;;;;;;;;;;;;;;;25.18;nan;101111.41;5055950;28;1088;-36
2022/09/21 07:26:08;;;;;;;;;;;;;;;25.19;nan;101107.78;5055111;28;1304;-37
2022/09/21 07:28:35;;;;;;;;;;;;;;;25.18;nan;101109.59;5055061;28;1172;-39
2022/09/21 07:31:06;;;;;;;;;;;;;;;25.17;nan;101113.22;5053565;28;2014;-38
2022/09/21 07:33:33;;;;;;;;;;;;;;;25.19;nan;101113.13;5055084;28;1243;-38
2022/09/21 07:36:08;;;;;;;;;;;;;;;25.18;nan;101112.25;5054309;28;1991;-40
2022/09/21 07:38:38;;;;;;;;;;;;;;;25.18;nan;101114.94;5055391;28;1266;-40
2022/09/21 07:41:12;;;;;;;;;;;;;;;25.19;nan;101124.63;5054511;28;1366;-38
2022/09/21 07:43:39;;;;;;;;;;;;;;;25.19;nan;101119.31;5055347;28;941;-39
2022/09/21 07:46:06;;;;;;;;;;;;;;;25.19;nan;101126.44;5054950;28;1193;-41
2022/09/21 07:48:33;;;;;;;;;;;;;;;25.18;nan;101122.94;5055284;28;1235;-39
2022/09/21 07:51:03;;;;;;;;;;;;;;;25.18;nan;101122.94;5037983;28;1612;-35
2022/09/21 07:53:33;;;;;;;;;;;;;;;25.19;nan;101129.97;5036259;28;1143;-39
2022/09/21 07:56:01;;;;;;;;;;;;;;;25.21;nan;101129.84;5054890;28;1910;-35
2022/09/21 08:01:13;;;;;;;;;;;;;;;25.21;nan;101116.50;5044851;28;1268;-40
2022/09/21 08:03:40;;;;;;;;;;;;;;;25.21;nan;101122.69;5086549;28;996;-40
2022/09/21 08:06:08;;;;;;;;;;;;;;;25.22;nan;101127.06;5053344;28;1314;-38
2022/09/21 08:08:35;;;;;;;;;;;;;;;25.25;nan;101131.31;5041731;28;1668;-40
2022/09/21 08:11:04;;;;;;;;;;;;;;;25.26;nan;101136.50;5033812;28;1252;-40
2022/09/21 08:13:31;;;;;;;;;;;;;;;25.26;nan;101136.50;5033660;28;1238;-39
2022/09/21 08:15:59;;;;;;;;;;;;;;;25.28;nan;101139.06;5033900;28;1332;-39
2022/09/21 08:18:26;;;;;;;;;;;;;;;25.30;nan;101134.44;5034528;28;1914;-39
2022/09/21 08:20:56;;;;;;;;;;;;;;;25.29;nan;101141.59;5046011;28;1212;-37
2022/09/21 08:23:24;;;;;;;;;;;;;;;25.31;nan;101139.69;5047977;28;1116;-37
2022/09/21 08:25:51;;;;;;;;;;;;;;;25.30;nan;101135.31;5047286;28;1302;-39
2022/09/21 08:28:18;;;;;;;;;;;;;;;25.31;nan;101141.47;5031439;28;1632;-37
2022/09/21 08:30:45;;;;;;;;;;;;;;;25.32;nan;101151.19;5041675;28;1382;-38
2022/09/21 08:33:12;;;;;;;;;;;;;;;25.32;nan;101151.19;5047936;28;941;-39
2022/09/21 08:35:38;;;;;;;;;;;;;;;25.32;nan;101146.69;5052183;28;1243;-39
2022/09/21 08:38:05;;;;;;;;;;;;;;;25.32;nan;101152.00;5052789;28;1985;-38
2022/09/21 08:40:33;;;;;;;;;;;;;;;25.32;nan;101146.69;5085719;28;1200;-40
2022/09/21 08:43:07;;;;;;;;;;;;;;;25.33;nan;101156.38;5052887;28;1241;-41
2022/09/21 08:45:38;;;;;;;;;;;;;;;25.32;nan;101148.53;5051613;28;1268;-39
2022/09/21 08:48:10;;;;;;;;;;;;;;;25.32;nan;101144.00;5051654;28;1135;-39
2022/09/21 08:50:40;;;;;;;;;;;;;;;25.32;nan;101145.88;5050738;28;1323;-40
2022/09/21 08:53:16;;;;;;;;;;;;;;;25.31;nan;101146.81;5050712;28;1068;-40
2022/09/21 08:55:43;;;;;;;;;;;;;;;25.31;nan;101147.66;5051356;28;1346;-38
2022/09/21 08:58:19;;;;;;;;;;;;;;;25.30;nan;101139.78;5052019;28;1910;-39
2022/09/21 09:00:48;;;;;;;;;;;;;;;25.29;nan;101141.59;5053967;28;1236;-36
2022/09/21 09:03:22;;;;;;;;;;;;;;;25.31;nan;101145.00;5054064;28;1173;-39
2022/09/21 09:05:52;;;;;;;;;;;;;;;25.31;nan;101147.66;5053657;28;1265;-39
2022/09/21 09:08:31;;;;;;;;;;;;;;;25.30;nan;101143.28;5054059;28;1019;-34
2022/09/21 09:11:12;;;;;;;;;;;;;;;25.31;nan;101146.81;5053091;28;1295;-38
2022/09/21 09:13:58;;;;;;;;;;;;;;;25.32;nan;101152.00;5053778;28;1255;-38
2022/09/21 09:16:25;;;;;;;;;;;;;;;25.33;nan;101145.72;5053448;28;1918;-40
2022/09/21 09:18:53;;;;;;;;;;;;;;;25.34;nan;101149.25;5053733;28;1099;-39
2022/09/21 09:21:38;;;;;;;;;;;;;;;25.34;nan;101152.75;5085486;28;1314;-39
2022/09/21 09:24:10;;;;;;;;;;;;;;;25.34;nan;101150.09;5053987;28;1547;-39
2022/09/21 09:26:41;;;;;;;;;;;;;;;25.34;nan;101155.44;5053513;28;1334;-39
2022/09/21 09:29:23;;;;;;;;;;;;;;;25.36;nan;101152.63;5052993;28;647;-39
2022/09/21 09:31:53;;;;;;;;;;;;;;;25.36;nan;101148.16;5053403;28;1270;-38
2022/09/21 09:34:27;;;;;;;;;;;;;;;25.36;nan;101142.81;5053628;28;884;-38
2022/09/21 09:36:58;;;;;;;;;;;;;;;25.36;nan;101153.47;5040502;28;1907;-39
2022/09/21 09:39:27;;;;;;;;;;;;;;;25.36;nan;101142.81;5039365;28;1490;-39
2022/09/21 09:41:57;;;;;;;;;;;;;;;25.36;nan;101152.63;5037961;28;1547;-36
2022/09/21 09:44:32;;;;;;;;;;;;;;;25.31;nan;101141.47;5050471;28;905;-38
2022/09/21 09:47:02;;;;;;;;;;;;;;;25.29;nan;101151.44;5052509;28;1385;-41
2022/09/21 09:49:29;;;;;;;;;;;;;;;25.29;nan;101146.91;5043342;28;1460;-38
2022/09/21 09:51:55;;;;;;;;;;;;;;;25.33;nan;101142.19;5042446;28;1518;-39
2022/09/21 09:54:24;;;;;;;;;;;;;;;25.35;nan;101150.94;5047850;28;1017;-36
2022/09/21 09:56:50;;;;;;;;;;;;;;;25.34;nan;101150.09;5051761;28;1973;-38
2022/09/21 09:59:20;;;;;;;;;;;;;;;25.32;nan;101148.53;5052349;28;766;-38
2022/09/21 10:01:58;;;;;;;;;;;;;;;25.33;nan;101143.06;5052246;28;1223;-35
2022/09/21 10:04:24;;;;;;;;;;;;;;;25.34;nan;101136.75;5052215;28;735;-35
2022/09/21 10:06:51;;;;;;;;;;;;;;;25.36;nan;101136.63;5052201;28;1166;-37
2022/09/21 10:09:31;;;;;;;;;;;;;;;25.34;nan;101134.09;5050712;28;789;-37
2022/09/21 10:12:17;;;;;;;;;;;;;;;25.36;nan;101137.47;5034137;28;1171;-37
2022/09/21 10:14:55;;;;;;;;;;;;;;;25.38;nan;101138.19;5052078;28;1269;-37
2022/09/21 10:17:23;;;;;;;;;;;;;;;25.41;nan;101140.63;5052105;28;2001;-36
2022/09/21 10:20:00;;;;;;;;;;;;;;;25.43;nan;101143.19;5051007;28;1268;-34
2022/09/21 10:22:27;;;;;;;;;;;;;;;25.45;nan;101139.44;5052370;28;1054;-37
2022/09/21 10:24:55;;;;;;;;;;;;;;;25.47;nan;101148.16;5051534;28;1189;-35
2022/09/21 10:27:32;;;;;;;;;;;;;;;25.50;nan;101145.25;5051732;28;1130;-36
2022/09/21 10:29:59;;;;;;;;;;;;;;;25.48;nan;101136.53;5050740;28;1269;-39
2022/09/21 10:32:26;;;;;;;;;;;;;;;25.50;nan;101136.44;5050851;28;1056;-37
2022/09/21 10:34:59;;;;;;;;;;;;;;;25.49;nan;101138.25;5051729;28;1169;-38
2022/09/21 10:37:27;;;;;;;;;;;;;;;25.51;nan;101141.63;5054039;28;1910;-36
2022/09/21 10:39:54;;;;;;;;;;;;;;;25.52;nan;101147.81;5056257;28;1295;-37
2022/09/21 10:42:20;;;;;;;;;;;;;;;25.52;nan;101140.69;5056372;28;1045;-37
2022/09/21 10:45:05;;;;;;;;;;;;;;;25.53;nan;101129.03;5056078;28;1336;-36
2022/09/21 10:47:39;;;;;;;;;;;;;;;25.56;nan;101127.94;5056310;28;1039;-39
2022/09/21 10:50:38;;;;;;;;;;;;;;;25.57;nan;101123.44;5055879;28;1593;-36
2022/09/21 10:53:08;;;;;;;;;;;;;;;25.56;nan;101117.28;5046036;28;1251;-36
2022/09/21 10:55:54;;;;;;;;;;;;;;;25.56;nan;101121.75;5074203;28;1244;-39
2022/09/21 10:58:59;;;;;;;;;;;;;;;25.56;nan;101121.75;5079494;28;2084;-39
2022/09/21 11:01:27;;;;;;;;;;;;;;;25.53;nan;101118.34;5054275;28;2018;-37
2022/09/21 11:03:59;;;;;;;;;;;;;;;25.54;nan;101119.19;5055751;28;1035;-37
2022/09/21 11:06:28;;;;;;;;;;;;;;;25.53;nan;101121.00;5055820;28;1287;-40
2022/09/21 11:08:55;;;;;;;;;;;;;;;25.53;nan;101113.00;5055818;28;1035;-39
2022/09/21 11:11:36;;;;;;;;;;;;;;;25.52;nan;101108.66;5055637;28;1220;-38
2022/09/21 11:14:06;;;;;;;;;;;;;;;25.53;nan;101107.69;5055304;28;639;-36
2022/09/21 11:16:40;;;;;;;;;;;;;;;25.52;nan;101106.00;5055533;28;1177;-40
2022/09/21 11:19:26;;;;;;;;;;;;;;;25.56;nan;101103.09;5049713;28;1918;-43
2022/09/21 11:21:59;;;;;;;;;;;;;;;25.53;nan;101105.00;5053748;28;1379;-45
2022/09/21 11:24:42;;;;;;;;;;;;;;;25.54;nan;101106.72;5054458;28;1026;-46
2022/09/21 11:27:13;;;;;;;;;;;;;;;25.51;nan;101103.44;5055324;28;1010;-45
2022/09/21 11:29:58;;;;;;;;;;;;;;;25.49;nan;101102.72;5054445;28;1387;-45
2022/09/21 11:32:25;;;;;;;;;;;;;;;25.49;nan;101103.59;5050676;28;1918;-41
2022/09/21 11:35:11;;;;;;;;;;;;;;;25.50;nan;101102.59;5081578;28;1964;-44
2022/09/21 11:38:03;;;;;;;;;;;;;;;25.52;nan;101106.00;5081031;28;1914;-41
2022/09/21 11:40:45;;;;;;;;;;;;;;;25.51;nan;101108.78;5053071;28;1383;-44
2022/09/21 11:43:30;;;;;;;;;;;;;;;25.48;nan;101104.53;5047808;28;1401;-42
2022/09/21 11:46:05;;;;;;;;;;;;;;;25.41;nan;101105.13;5084606;28;1256;-43
2022/09/21 11:49:00;;;;;;;;;;;;;;;25.43;nan;101106.69;5049007;28;1275;-43
2022/09/21 11:51:37;;;;;;;;;;;;;;;25.46;nan;101103.78;5066256;28;1197;-33
2022/09/21 11:54:16;;;;;;;;;;;;;;;25.43;nan;101109.38;5050694;28;976;-40
2022/09/21 11:56:52;;;;;;;;;;;;;;;25.43;nan;101106.69;5053154;28;1275;-34
2022/09/21 11:59:29;;;;;;;;;;;;;;;25.47;nan;101105.47;5053650;28;1906;-41
2022/09/21 12:02:11;;;;;;;;;;;;;;;25.43;nan;101112.03;5053052;28;1469;-42
2022/09/21 12:04:56;;;;;;;;;;;;;;;25.36;nan;101100.16;5043544;28;1303;-32
2022/09/21 12:07:35;;;;;;;;;;;;;;;25.40;nan;101100.75;5053419;28;1553;-36
2022/09/21 12:10:21;;;;;;;;;;;;;;;25.43;nan;101100.50;5052633;28;1319;-39
2022/09/21 12:12:53;;;;;;;;;;;;;;;25.41;nan;101087.28;5054292;28;1177;-39
2022/09/21 12:15:35;;;;;;;;;;;;;;;25.41;nan;101095.28;5054246;28;1256;-31
2022/09/21 12:18:07;;;;;;;;;;;;;;;25.38;nan;101098.19;5053495;28;1906;-35
2022/09/21 12:20:35;;;;;;;;;;;;;;;25.40;nan;101101.63;5052272;28;1300;-35
2022/09/21 12:23:05;;;;;;;;;;;;;;;25.36;nan;101097.47;5054501;28;1037;-33
2022/09/21 12:25:34;;;;;;;;;;;;;;;25.38;nan;101086.72;5052562;28;1283;-31
2022/09/21 12:28:09;;;;;;;;;;;;;;;25.39;nan;101094.56;5052895;28;1169;-34
2022/09/21 12:30:38;;;;;;;;;;;;;;;25.44;nan;101092.38;5051862;28;1398;-30
2022/09/21 12:33:19;;;;;;;;;;;;;;;25.46;nan;101087.78;5054145;28;1120;-37
2022/09/21 12:35:53;;;;;;;;;;;;;;;25.49;nan;101084.91;5053377;28;1390;-35
2022/09/21 12:38:23;;;;;;;;;;;;;;;25.51;nan;101082.09;5053794;28;1981;-33
2022/09/21 12:41:16;;;;;;;;;;;;;;;25.59;nan;101086.84;5085541;28;1314;-31
2022/09/21 12:43:50;;;;;;;;;;;;;;;25.60;nan;101080.50;5050192;28;1648;-37
2022/09/21 12:46:19;;;;;;;;;;;;;;;25.63;nan;101077.59;5053191;28;1268;-35
2022/09/21 12:48:46;;;;;;;;;;;;;;;25.64;nan;101082.81;5053591;28;1935;-31
2022/09/21 12:51:18;;;;;;;;;;;;;;;25.70;nan;101078.81;5049925;28;1756;-38
2022/09/21 12:53:47;;;;;;;;;;;;;;;25.70;nan;101069.00;5044368;28;1623;-41
2022/09/21 12:56:17;;;;;;;;;;;;;;;25.69;nan;101075.28;5051422;28;1304;-37
2022/09/21 12:59:00;;;;;;;;;;;;;;;25.70;nan;101070.81;5038717;28;1906;-30
2022/09/21 13:01:34;;;;;;;;;;;;;;;25.69;nan;101072.63;5032363;28;1382;-34
2022/09/21 13:04:11;;;;;;;;;;;;;;;25.68;nan;101072.75;5036032;28;901;-31
2022/09/21 13:06:56;;;;;;;;;;;;;;;25.67;nan;101071.06;5044454;28;1347;-39
2022/09/21 13:09:24;;;;;;;;;;;;;;;25.66;nan;101072.00;5046323;28;1356;-40
2022/09/21 13:12:07;;;;;;;;;;;;;;;25.66;nan;101064.88;5034634;28;1285;-33
2022/09/21 13:14:35;;;;;;;;;;;;;;;25.67;nan;101057.72;5044685;28;1300;-34
2022/09/21 13:17:04;;;;;;;;;;;;;;;25.65;nan;101062.34;5043640;28;1042;-33
2022/09/21 13:19:33;;;;;;;;;;;;;;;25.64;nan;101053.47;5043928;28;1981;-39
2022/09/21 13:22:12;;;;;;;;;;;;;;;25.66;nan;101050.69;5046981;28;973;-38
2022/09/21 13:24:41;;;;;;;;;;;;;;;25.66;nan;101053.34;5048841;28;1252;-39
2022/09/21 13:27:08;;;;;;;;;;;;;;;25.66;nan;101059.53;5032559;28;958;-35
2022/09/21 13:29:36;;;;;;;;;;;;;;;25.67;nan;101053.22;5039035;28;1256;-35
2022/09/21 13:32:09;;;;;;;;;;;;;;;25.66;nan;101053.34;5033953;28;1135;-40
2022/09/21 13:34:37;;;;;;;;;;;;;;;25.66;nan;101048.00;5034703;28;1339;-38